sensor_id;sensor_type;location;lat;lon;timestamp;temperature;humidity
38131;DHT22;23947;51.894;4.622;2022-08-03T00:00:39;20.30;1.00
38131;DHT22;23947;51.894;4.622;2022-08-03T00:03:05;20.30;1.00
38131;DHT22;23947;51.894;4.622;2022-08-03T00:05:31;20.30;1.00
38131;DHT22;23947;51.894;4.622;2022-08-03T00:08:00;20.30;1.00
38131;DHT22;23947;51.894;4.622;2022-08-03T00:10:25;20.30;1.00
38131;DHT22;23947;51.894;4.622;2022-08-03T00:12:52;20.20;1.00
38131;DHT22;23947;51.894;4.622;2022-08-03T00:15:18;20.20;1.00
38131;DHT22;23947;51.894;4.622;2022-08-03T00:17:44;20.20;1.00
38131;DHT22;23947;51.894;4.622;2022-08-03T00:20:11;20.20;1.00
38131;DHT22;23947;51.894;4.622;2022-08-03T00:22:37;20.20;1.00
38131;DHT22;23947;51.894;4.622;2022-08-03T00:25:03;20.10;1.00
38131;DHT22;23947;51.894;4.622;2022-08-03T00:27:29;20.10;1.00
38131;DHT22;23947;51.894;4.622;2022-08-03T00:29:54;20.00;1.00
38131;DHT22;23947;51.894;4.622;2022-08-03T00:32:20;20.00;1.00
38131;DHT22;23947;51.894;4.622;2022-08-03T00:34:46;20.00;1.00
38131;DHT22;23947;51.894;4.622;2022-08-03T00:37:11;20.00;1.00
38131;DHT22;23947;51.894;4.622;2022-08-03T00:39:37;20.00;1.00
38131;DHT22;23947;51.894;4.622;2022-08-03T00:42:03;19.90;1.00
38131;DHT22;23947;51.894;4.622;2022-08-03T00:44:29;20.00;1.00
38131;DHT22;23947;51.894;4.622;2022-08-03T00:46:55;19.90;1.00
38131;DHT22;23947;51.894;4.622;2022-08-03T00:49:21;19.90;1.00
38131;DHT22;23947;51.894;4.622;2022-08-03T00:51:47;19.90;1.00
38131;DHT22;23947;51.894;4.622;2022-08-03T00:54:14;19.90;1.00
38131;DHT22;23947;51.894;4.622;2022-08-03T00:56:40;19.80;1.00
38131;DHT22;23947;51.894;4.622;2022-08-03T00:59:06;19.80;1.00
38131;DHT22;23947;51.894;4.622;2022-08-03T01:01:33;19.80;1.00
38131;DHT22;23947;51.894;4.622;2022-08-03T01:03:59;19.80;1.00
38131;DHT22;23947;51.894;4.622;2022-08-03T01:06:40;19.90;1.00
38131;DHT22;23947;51.894;4.622;2022-08-03T01:12:02;19.90;1.00
38131;DHT22;23947;51.894;4.622;2022-08-03T01:14:41;19.90;1.00
38131;DHT22;23947;51.894;4.622;2022-08-03T01:17:24;19.90;1.00
38131;DHT22;23947;51.894;4.622;2022-08-03T01:20:00;19.80;1.00
38131;DHT22;23947;51.894;4.622;2022-08-03T01:31:11;19.70;1.00
38131;DHT22;23947;51.894;4.622;2022-08-03T01:33:41;19.70;1.00
38131;DHT22;23947;51.894;4.622;2022-08-03T01:36:13;19.70;1.00
38131;DHT22;23947;51.894;4.622;2022-08-03T01:38:50;19.70;1.00
38131;DHT22;23947;51.894;4.622;2022-08-03T01:41:21;19.70;1.00
38131;DHT22;23947;51.894;4.622;2022-08-03T01:43:50;19.70;1.00
38131;DHT22;23947;51.894;4.622;2022-08-03T01:46:18;19.70;1.00
38131;DHT22;23947;51.894;4.622;2022-08-03T01:48:46;19.70;1.00
38131;DHT22;23947;51.894;4.622;2022-08-03T01:51:14;19.60;1.00
38131;DHT22;23947;51.894;4.622;2022-08-03T01:53:41;19.60;1.00
38131;DHT22;23947;51.894;4.622;2022-08-03T01:56:08;19.60;1.00
38131;DHT22;23947;51.894;4.622;2022-08-03T01:58:35;19.60;1.00
38131;DHT22;23947;51.894;4.622;2022-08-03T02:01:02;19.60;1.00
38131;DHT22;23947;51.894;4.622;2022-08-03T02:03:28;19.50;1.00
38131;DHT22;23947;51.894;4.622;2022-08-03T02:05:57;19.60;1.00
38131;DHT22;23947;51.894;4.622;2022-08-03T02:08:24;19.60;1.00
38131;DHT22;23947;51.894;4.622;2022-08-03T02:10:51;19.60;1.00
38131;DHT22;23947;51.894;4.622;2022-08-03T02:13:20;19.50;1.00
38131;DHT22;23947;51.894;4.622;2022-08-03T02:15:47;19.50;1.00
38131;DHT22;23947;51.894;4.622;2022-08-03T02:18:14;19.50;1.00
38131;DHT22;23947;51.894;4.622;2022-08-03T02:20:42;19.50;1.00
38131;DHT22;23947;51.894;4.622;2022-08-03T02:23:08;19.50;1.00
38131;DHT22;23947;51.894;4.622;2022-08-03T02:25:38;19.40;1.00
38131;DHT22;23947;51.894;4.622;2022-08-03T02:28:09;19.50;1.00
38131;DHT22;23947;51.894;4.622;2022-08-03T02:30:37;19.40;1.00
38131;DHT22;23947;51.894;4.622;2022-08-03T02:33:12;19.50;1.00
38131;DHT22;23947;51.894;4.622;2022-08-03T02:35:42;19.40;1.00
38131;DHT22;23947;51.894;4.622;2022-08-03T02:38:09;19.40;1.00
38131;DHT22;23947;51.894;4.622;2022-08-03T02:40:36;19.40;1.00
38131;DHT22;23947;51.894;4.622;2022-08-03T02:43:08;19.30;1.00
38131;DHT22;23947;51.894;4.622;2022-08-03T02:45:36;19.30;1.00
38131;DHT22;23947;51.894;4.622;2022-08-03T02:48:03;19.30;1.00
38131;DHT22;23947;51.894;4.622;2022-08-03T02:50:30;19.30;1.00
38131;DHT22;23947;51.894;4.622;2022-08-03T02:52:57;19.30;1.00
38131;DHT22;23947;51.894;4.622;2022-08-03T02:55:25;19.30;1.00
38131;DHT22;23947;51.894;4.622;2022-08-03T02:57:52;19.30;1.00
38131;DHT22;23947;51.894;4.622;2022-08-03T03:00:19;19.30;1.00
38131;DHT22;23947;51.894;4.622;2022-08-03T03:02:44;19.30;1.00
38131;DHT22;23947;51.894;4.622;2022-08-03T03:05:11;19.20;1.00
38131;DHT22;23947;51.894;4.622;2022-08-03T03:07:38;19.20;1.00
38131;DHT22;23947;51.894;4.622;2022-08-03T03:10:05;19.20;1.00
38131;DHT22;23947;51.894;4.622;2022-08-03T03:12:32;19.20;1.00
38131;DHT22;23947;51.894;4.622;2022-08-03T03:14:58;19.20;1.00
38131;DHT22;23947;51.894;4.622;2022-08-03T03:17:24;19.20;1.00
38131;DHT22;23947;51.894;4.622;2022-08-03T03:19:51;19.20;1.00
38131;DHT22;23947;51.894;4.622;2022-08-03T03:22:17;19.10;1.00
38131;DHT22;23947;51.894;4.622;2022-08-03T03:24:43;19.10;1.00
38131;DHT22;23947;51.894;4.622;2022-08-03T03:27:10;19.00;1.00
38131;DHT22;23947;51.894;4.622;2022-08-03T03:29:38;19.00;1.00
38131;DHT22;23947;51.894;4.622;2022-08-03T03:32:05;19.00;1.00
38131;DHT22;23947;51.894;4.622;2022-08-03T03:34:31;19.00;1.00
38131;DHT22;23947;51.894;4.622;2022-08-03T03:36:57;19.00;1.00
38131;DHT22;23947;51.894;4.622;2022-08-03T03:39:22;19.00;1.00
38131;DHT22;23947;51.894;4.622;2022-08-03T03:41:48;19.00;1.00
38131;DHT22;23947;51.894;4.622;2022-08-03T03:44:14;18.90;1.00
38131;DHT22;23947;51.894;4.622;2022-08-03T03:46:40;18.90;1.00
38131;DHT22;23947;51.894;4.622;2022-08-03T03:49:06;18.90;1.00
38131;DHT22;23947;51.894;4.622;2022-08-03T03:51:32;18.90;1.00
38131;DHT22;23947;51.894;4.622;2022-08-03T03:53:59;18.90;1.00
38131;DHT22;23947;51.894;4.622;2022-08-03T03:56:26;18.80;1.00
38131;DHT22;23947;51.894;4.622;2022-08-03T03:58:52;18.80;1.00
38131;DHT22;23947;51.894;4.622;2022-08-03T04:01:18;18.80;1.00
38131;DHT22;23947;51.894;4.622;2022-08-03T04:03:44;18.70;1.00
38131;DHT22;23947;51.894;4.622;2022-08-03T04:06:10;18.70;1.00
38131;DHT22;23947;51.894;4.622;2022-08-03T04:08:54;18.70;1.00
38131;DHT22;23947;51.894;4.622;2022-08-03T04:11:42;18.70;1.00
38131;DHT22;23947;51.894;4.622;2022-08-03T04:14:15;18.70;1.00
38131;DHT22;23947;51.894;4.622;2022-08-03T04:16:45;18.60;1.00
38131;DHT22;23947;51.894;4.622;2022-08-03T04:19:18;18.60;1.00
38131;DHT22;23947;51.894;4.622;2022-08-03T04:21:47;18.60;1.00
38131;DHT22;23947;51.894;4.622;2022-08-03T04:24:15;18.60;1.00
38131;DHT22;23947;51.894;4.622;2022-08-03T04:26:43;18.70;1.00
38131;DHT22;23947;51.894;4.622;2022-08-03T04:29:11;18.70;1.00
38131;DHT22;23947;51.894;4.622;2022-08-03T04:31:39;18.70;1.00
38131;DHT22;23947;51.894;4.622;2022-08-03T04:34:05;18.70;1.00
38131;DHT22;23947;51.894;4.622;2022-08-03T04:36:35;18.80;1.00
38131;DHT22;23947;51.894;4.622;2022-08-03T04:39:04;18.70;1.00
38131;DHT22;23947;51.894;4.622;2022-08-03T04:41:32;18.70;1.00
38131;DHT22;23947;51.894;4.622;2022-08-03T04:43:59;18.60;1.00
38131;DHT22;23947;51.894;4.622;2022-08-03T04:46:30;18.60;1.00
38131;DHT22;23947;51.894;4.622;2022-08-03T04:48:57;18.60;1.00
38131;DHT22;23947;51.894;4.622;2022-08-03T04:51:24;18.60;1.00
38131;DHT22;23947;51.894;4.622;2022-08-03T04:53:50;18.60;1.00
38131;DHT22;23947;51.894;4.622;2022-08-03T04:56:16;18.60;1.00
38131;DHT22;23947;51.894;4.622;2022-08-03T04:58:41;18.60;1.00
38131;DHT22;23947;51.894;4.622;2022-08-03T05:01:07;18.60;1.00
38131;DHT22;23947;51.894;4.622;2022-08-03T05:03:33;18.60;1.00
38131;DHT22;23947;51.894;4.622;2022-08-03T05:05:58;18.60;1.00
38131;DHT22;23947;51.894;4.622;2022-08-03T05:08:24;18.70;1.00
38131;DHT22;23947;51.894;4.622;2022-08-03T05:10:49;18.60;1.00
38131;DHT22;23947;51.894;4.622;2022-08-03T05:13:15;18.60;1.00
38131;DHT22;23947;51.894;4.622;2022-08-03T05:15:41;18.60;1.00
38131;DHT22;23947;51.894;4.622;2022-08-03T05:18:06;18.60;1.00
38131;DHT22;23947;51.894;4.622;2022-08-03T05:20:32;18.60;1.00
38131;DHT22;23947;51.894;4.622;2022-08-03T05:22:58;18.60;1.00
38131;DHT22;23947;51.894;4.622;2022-08-03T05:25:26;18.70;1.00
38131;DHT22;23947;51.894;4.622;2022-08-03T05:27:51;18.70;1.00
38131;DHT22;23947;51.894;4.622;2022-08-03T05:30:17;18.70;1.00
38131;DHT22;23947;51.894;4.622;2022-08-03T05:32:42;18.80;1.00
38131;DHT22;23947;51.894;4.622;2022-08-03T05:35:08;18.80;1.00
38131;DHT22;23947;51.894;4.622;2022-08-03T05:37:34;18.80;1.00
38131;DHT22;23947;51.894;4.622;2022-08-03T05:39:59;18.80;1.00
38131;DHT22;23947;51.894;4.622;2022-08-03T05:42:25;18.90;1.00
38131;DHT22;23947;51.894;4.622;2022-08-03T05:44:50;18.90;1.00
38131;DHT22;23947;51.894;4.622;2022-08-03T05:47:16;19.00;1.00
38131;DHT22;23947;51.894;4.622;2022-08-03T05:49:41;19.00;1.00
38131;DHT22;23947;51.894;4.622;2022-08-03T05:52:07;19.00;1.00
38131;DHT22;23947;51.894;4.622;2022-08-03T05:54:33;19.00;1.00
38131;DHT22;23947;51.894;4.622;2022-08-03T05:56:58;19.10;1.00
38131;DHT22;23947;51.894;4.622;2022-08-03T05:59:24;19.10;1.00
38131;DHT22;23947;51.894;4.622;2022-08-03T06:01:52;19.20;1.00
38131;DHT22;23947;51.894;4.622;2022-08-03T06:04:18;19.30;1.00
38131;DHT22;23947;51.894;4.622;2022-08-03T06:06:44;19.30;1.00
38131;DHT22;23947;51.894;4.622;2022-08-03T06:09:09;19.40;1.00
38131;DHT22;23947;51.894;4.622;2022-08-03T06:11:36;19.50;1.00
38131;DHT22;23947;51.894;4.622;2022-08-03T06:14:02;19.50;1.00
38131;DHT22;23947;51.894;4.622;2022-08-03T06:16:27;19.40;1.00
38131;DHT22;23947;51.894;4.622;2022-08-03T06:18:53;19.40;1.00
38131;DHT22;23947;51.894;4.622;2022-08-03T06:21:19;19.50;1.00
38131;DHT22;23947;51.894;4.622;2022-08-03T06:23:45;19.50;1.00
38131;DHT22;23947;51.894;4.622;2022-08-03T06:26:14;19.60;1.00
38131;DHT22;23947;51.894;4.622;2022-08-03T06:28:40;19.60;1.00
38131;DHT22;23947;51.894;4.622;2022-08-03T06:31:05;19.50;1.00
38131;DHT22;23947;51.894;4.622;2022-08-03T06:33:31;19.50;1.00
38131;DHT22;23947;51.894;4.622;2022-08-03T06:35:57;19.50;1.00
38131;DHT22;23947;51.894;4.622;2022-08-03T06:38:22;19.50;1.00
38131;DHT22;23947;51.894;4.622;2022-08-03T06:40:48;19.50;1.00
38131;DHT22;23947;51.894;4.622;2022-08-03T06:43:14;19.60;1.00
38131;DHT22;23947;51.894;4.622;2022-08-03T06:45:40;19.60;1.00
38131;DHT22;23947;51.894;4.622;2022-08-03T06:48:08;19.70;1.00
38131;DHT22;23947;51.894;4.622;2022-08-03T06:50:35;19.70;1.00
38131;DHT22;23947;51.894;4.622;2022-08-03T06:53:02;19.70;1.00
38131;DHT22;23947;51.894;4.622;2022-08-03T06:55:28;19.70;1.00
38131;DHT22;23947;51.894;4.622;2022-08-03T06:57:54;19.80;1.00
38131;DHT22;23947;51.894;4.622;2022-08-03T07:00:20;19.80;1.00
38131;DHT22;23947;51.894;4.622;2022-08-03T07:02:46;19.70;1.00
38131;DHT22;23947;51.894;4.622;2022-08-03T07:05:11;19.80;1.00
38131;DHT22;23947;51.894;4.622;2022-08-03T07:07:38;19.80;1.00
38131;DHT22;23947;51.894;4.622;2022-08-03T07:10:05;19.80;1.00
38131;DHT22;23947;51.894;4.622;2022-08-03T07:12:32;19.90;1.00
38131;DHT22;23947;51.894;4.622;2022-08-03T07:14:59;19.90;1.00
38131;DHT22;23947;51.894;4.622;2022-08-03T07:17:25;20.00;1.00
38131;DHT22;23947;51.894;4.622;2022-08-03T07:19:51;20.00;1.00
38131;DHT22;23947;51.894;4.622;2022-08-03T07:22:17;20.00;1.00
38131;DHT22;23947;51.894;4.622;2022-08-03T07:24:42;20.10;1.00
38131;DHT22;23947;51.894;4.622;2022-08-03T07:27:08;20.10;1.00
38131;DHT22;23947;51.894;4.622;2022-08-03T07:29:34;20.20;1.00
38131;DHT22;23947;51.894;4.622;2022-08-03T07:32:01;20.20;1.00
38131;DHT22;23947;51.894;4.622;2022-08-03T07:34:26;20.40;1.00
38131;DHT22;23947;51.894;4.622;2022-08-03T07:36:52;20.40;1.00
38131;DHT22;23947;51.894;4.622;2022-08-03T07:39:18;20.40;1.00
38131;DHT22;23947;51.894;4.622;2022-08-03T07:41:44;20.40;1.00
38131;DHT22;23947;51.894;4.622;2022-08-03T07:44:10;20.50;1.00
38131;DHT22;23947;51.894;4.622;2022-08-03T07:46:35;20.50;1.00
38131;DHT22;23947;51.894;4.622;2022-08-03T07:49:01;20.60;1.00
38131;DHT22;23947;51.894;4.622;2022-08-03T07:51:26;20.60;1.00
38131;DHT22;23947;51.894;4.622;2022-08-03T07:53:52;20.70;1.00
38131;DHT22;23947;51.894;4.622;2022-08-03T07:56:18;20.70;1.00
38131;DHT22;23947;51.894;4.622;2022-08-03T07:58:44;20.90;1.00
38131;DHT22;23947;51.894;4.622;2022-08-03T08:01:09;20.90;1.00
38131;DHT22;23947;51.894;4.622;2022-08-03T08:03:35;21.00;1.00
38131;DHT22;23947;51.894;4.622;2022-08-03T08:06:00;21.00;1.00
38131;DHT22;23947;51.894;4.622;2022-08-03T08:08:26;21.00;1.00
38131;DHT22;23947;51.894;4.622;2022-08-03T08:10:52;21.10;1.00
38131;DHT22;23947;51.894;4.622;2022-08-03T08:13:17;21.10;1.00
38131;DHT22;23947;51.894;4.622;2022-08-03T08:15:43;21.10;1.00
38131;DHT22;23947;51.894;4.622;2022-08-03T08:18:08;21.10;1.00
38131;DHT22;23947;51.894;4.622;2022-08-03T08:20:34;21.20;1.00
38131;DHT22;23947;51.894;4.622;2022-08-03T08:23:05;21.20;1.00
38131;DHT22;23947;51.894;4.622;2022-08-03T08:25:31;21.20;1.00
38131;DHT22;23947;51.894;4.622;2022-08-03T08:27:57;21.30;1.00
38131;DHT22;23947;51.894;4.622;2022-08-03T08:30:26;21.40;1.00
38131;DHT22;23947;51.894;4.622;2022-08-03T08:32:51;21.50;1.00
38131;DHT22;23947;51.894;4.622;2022-08-03T08:35:17;21.50;1.00
38131;DHT22;23947;51.894;4.622;2022-08-03T08:37:43;21.60;1.00
38131;DHT22;23947;51.894;4.622;2022-08-03T08:40:10;21.60;1.00
38131;DHT22;23947;51.894;4.622;2022-08-03T08:42:43;21.60;1.00
38131;DHT22;23947;51.894;4.622;2022-08-03T08:45:10;21.70;1.00
38131;DHT22;23947;51.894;4.622;2022-08-03T08:47:43;21.80;1.00
38131;DHT22;23947;51.894;4.622;2022-08-03T08:50:10;21.80;1.00
38131;DHT22;23947;51.894;4.622;2022-08-03T08:52:39;21.80;1.00
38131;DHT22;23947;51.894;4.622;2022-08-03T08:55:08;21.90;1.00
38131;DHT22;23947;51.894;4.622;2022-08-03T08:57:37;21.90;1.00
38131;DHT22;23947;51.894;4.622;2022-08-03T09:00:08;22.10;1.00
38131;DHT22;23947;51.894;4.622;2022-08-03T09:02:38;22.10;1.00
38131;DHT22;23947;51.894;4.622;2022-08-03T09:05:12;22.20;1.00
38131;DHT22;23947;51.894;4.622;2022-08-03T09:07:39;22.30;1.00
38131;DHT22;23947;51.894;4.622;2022-08-03T09:10:06;22.30;1.00
38131;DHT22;23947;51.894;4.622;2022-08-03T09:12:46;22.40;1.00
38131;DHT22;23947;51.894;4.622;2022-08-03T09:15:38;22.60;1.00
38131;DHT22;23947;51.894;4.622;2022-08-03T09:18:04;22.70;1.00
38131;DHT22;23947;51.894;4.622;2022-08-03T09:20:31;22.70;1.00
38131;DHT22;23947;51.894;4.622;2022-08-03T09:22:59;22.80;1.00
38131;DHT22;23947;51.894;4.622;2022-08-03T09:25:47;22.80;1.00
38131;DHT22;23947;51.894;4.622;2022-08-03T09:28:16;22.90;1.00
38131;DHT22;23947;51.894;4.622;2022-08-03T09:30:44;23.00;1.00
38131;DHT22;23947;51.894;4.622;2022-08-03T09:33:13;23.10;1.00
38131;DHT22;23947;51.894;4.622;2022-08-03T09:35:44;23.10;1.00
38131;DHT22;23947;51.894;4.622;2022-08-03T09:40:35;23.30;1.00
38131;DHT22;23947;51.894;4.622;2022-08-03T09:43:01;23.40;1.00
38131;DHT22;23947;51.894;4.622;2022-08-03T09:45:27;23.50;1.00
38131;DHT22;23947;51.894;4.622;2022-08-03T09:47:54;23.70;1.00
38131;DHT22;23947;51.894;4.622;2022-08-03T09:50:21;23.70;1.00
38131;DHT22;23947;51.894;4.622;2022-08-03T09:52:47;23.80;1.00
38131;DHT22;23947;51.894;4.622;2022-08-03T09:55:15;23.90;1.00
38131;DHT22;23947;51.894;4.622;2022-08-03T09:57:41;24.00;1.00
38131;DHT22;23947;51.894;4.622;2022-08-03T10:03:35;24.20;1.00
38131;DHT22;23947;51.894;4.622;2022-08-03T10:06:18;24.30;1.00
38131;DHT22;23947;51.894;4.622;2022-08-03T10:09:11;24.30;1.00
38131;DHT22;23947;51.894;4.622;2022-08-03T10:11:38;24.40;1.00
38131;DHT22;23947;51.894;4.622;2022-08-03T10:14:05;24.70;1.00
38131;DHT22;23947;51.894;4.622;2022-08-03T10:16:36;24.90;1.00
38131;DHT22;23947;51.894;4.622;2022-08-03T10:19:06;25.00;1.00
38131;DHT22;23947;51.894;4.622;2022-08-03T10:21:34;25.20;1.00
38131;DHT22;23947;51.894;4.622;2022-08-03T10:24:06;25.40;1.00
38131;DHT22;23947;51.894;4.622;2022-08-03T10:26:34;25.70;1.00
38131;DHT22;23947;51.894;4.622;2022-08-03T10:29:02;25.70;1.00
38131;DHT22;23947;51.894;4.622;2022-08-03T10:31:36;25.80;1.00
38131;DHT22;23947;51.894;4.622;2022-08-03T10:34:04;25.90;1.00
38131;DHT22;23947;51.894;4.622;2022-08-03T10:36:32;25.90;1.00
38131;DHT22;23947;51.894;4.622;2022-08-03T10:38:59;25.70;1.00
38131;DHT22;23947;51.894;4.622;2022-08-03T10:41:31;25.70;1.00
38131;DHT22;23947;51.894;4.622;2022-08-03T10:44:07;25.70;1.00
38131;DHT22;23947;51.894;4.622;2022-08-03T10:46:34;25.90;1.00
38131;DHT22;23947;51.894;4.622;2022-08-03T10:49:01;26.00;1.00
38131;DHT22;23947;51.894;4.622;2022-08-03T10:51:28;26.30;1.00
38131;DHT22;23947;51.894;4.622;2022-08-03T10:53:58;26.40;1.00
38131;DHT22;23947;51.894;4.622;2022-08-03T11:02:04;26.60;1.00
38131;DHT22;23947;51.894;4.622;2022-08-03T11:04:32;26.70;1.00
38131;DHT22;23947;51.894;4.622;2022-08-03T11:07:22;26.80;1.00
38131;DHT22;23947;51.894;4.622;2022-08-03T11:09:49;27.10;1.00
38131;DHT22;23947;51.894;4.622;2022-08-03T11:12:26;27.40;1.00
38131;DHT22;23947;51.894;4.622;2022-08-03T11:14:53;27.60;1.00
38131;DHT22;23947;51.894;4.622;2022-08-03T11:17:19;27.70;1.00
38131;DHT22;23947;51.894;4.622;2022-08-03T11:19:50;27.80;1.00
38131;DHT22;23947;51.894;4.622;2022-08-03T11:22:16;28.00;1.00
38131;DHT22;23947;51.894;4.622;2022-08-03T11:35:22;28.60;1.00
38131;DHT22;23947;51.894;4.622;2022-08-03T11:43:07;28.50;1.00
38131;DHT22;23947;51.894;4.622;2022-08-03T11:45:35;28.50;1.00
38131;DHT22;23947;51.894;4.622;2022-08-03T11:48:12;28.20;1.00
38131;DHT22;23947;51.894;4.622;2022-08-03T11:50:38;28.40;1.00
38131;DHT22;23947;51.894;4.622;2022-08-03T11:53:06;28.50;1.00
38131;DHT22;23947;51.894;4.622;2022-08-03T11:55:32;28.50;1.00
38131;DHT22;23947;51.894;4.622;2022-08-03T11:58:00;28.70;1.00
38131;DHT22;23947;51.894;4.622;2022-08-03T12:00:31;28.70;1.00
38131;DHT22;23947;51.894;4.622;2022-08-03T12:03:06;28.60;1.00
38131;DHT22;23947;51.894;4.622;2022-08-03T12:05:47;28.70;1.00
38131;DHT22;23947;51.894;4.622;2022-08-03T12:08:15;28.90;1.00
38131;DHT22;23947;51.894;4.622;2022-08-03T12:10:49;29.00;1.00
38131;DHT22;23947;51.894;4.622;2022-08-03T12:13:16;28.70;1.00
38131;DHT22;23947;51.894;4.622;2022-08-03T12:15:42;28.90;1.00
38131;DHT22;23947;51.894;4.622;2022-08-03T12:18:17;29.00;1.00
38131;DHT22;23947;51.894;4.622;2022-08-03T12:20:43;29.10;1.00
38131;DHT22;23947;51.894;4.622;2022-08-03T12:23:10;28.90;1.00
38131;DHT22;23947;51.894;4.622;2022-08-03T12:25:38;28.80;1.00
38131;DHT22;23947;51.894;4.622;2022-08-03T12:30:38;29.10;1.00
38131;DHT22;23947;51.894;4.622;2022-08-03T12:33:18;29.20;1.00
38131;DHT22;23947;51.894;4.622;2022-08-03T12:35:49;29.40;1.00
38131;DHT22;23947;51.894;4.622;2022-08-03T12:38:19;29.50;1.00
38131;DHT22;23947;51.894;4.622;2022-08-03T12:40:58;29.70;1.00
38131;DHT22;23947;51.894;4.622;2022-08-03T12:43:24;29.80;1.00
38131;DHT22;23947;51.894;4.622;2022-08-03T12:45:50;29.30;1.00
38131;DHT22;23947;51.894;4.622;2022-08-03T12:48:15;29.20;1.00
38131;DHT22;23947;51.894;4.622;2022-08-03T12:50:41;29.10;1.00
38131;DHT22;23947;51.894;4.622;2022-08-03T12:53:08;29.20;1.00
38131;DHT22;23947;51.894;4.622;2022-08-03T12:55:37;29.20;1.00
38131;DHT22;23947;51.894;4.622;2022-08-03T12:58:05;29.40;1.00
38131;DHT22;23947;51.894;4.622;2022-08-03T13:00:34;29.30;1.00
38131;DHT22;23947;51.894;4.622;2022-08-03T13:03:09;29.30;1.00
38131;DHT22;23947;51.894;4.622;2022-08-03T13:05:44;29.30;1.00
38131;DHT22;23947;51.894;4.622;2022-08-03T13:08:20;29.20;1.00
38131;DHT22;23947;51.894;4.622;2022-08-03T13:11:17;29.30;1.00
38131;DHT22;23947;51.894;4.622;2022-08-03T13:13:42;29.10;1.00
38131;DHT22;23947;51.894;4.622;2022-08-03T13:16:10;29.10;1.00
38131;DHT22;23947;51.894;4.622;2022-08-03T13:18:38;28.90;1.00
38131;DHT22;23947;51.894;4.622;2022-08-03T13:21:04;29.10;1.00
38131;DHT22;23947;51.894;4.622;2022-08-03T13:23:30;29.10;1.00
38131;DHT22;23947;51.894;4.622;2022-08-03T13:25:55;29.20;1.00
38131;DHT22;23947;51.894;4.622;2022-08-03T13:28:21;29.00;1.00
38131;DHT22;23947;51.894;4.622;2022-08-03T13:30:50;29.00;1.00
38131;DHT22;23947;51.894;4.622;2022-08-03T13:33:16;29.10;1.00
38131;DHT22;23947;51.894;4.622;2022-08-03T13:35:42;29.20;1.00
38131;DHT22;23947;51.894;4.622;2022-08-03T13:38:07;29.50;1.00
38131;DHT22;23947;51.894;4.622;2022-08-03T13:40:33;29.80;1.00
38131;DHT22;23947;51.894;4.622;2022-08-03T13:42:59;29.90;1.00
38131;DHT22;23947;51.894;4.622;2022-08-03T13:45:24;29.60;1.00
38131;DHT22;23947;51.894;4.622;2022-08-03T13:47:52;29.40;1.00
38131;DHT22;23947;51.894;4.622;2022-08-03T13:50:18;29.30;1.00
38131;DHT22;23947;51.894;4.622;2022-08-03T13:52:44;29.30;1.00
38131;DHT22;23947;51.894;4.622;2022-08-03T13:55:11;29.30;1.00
38131;DHT22;23947;51.894;4.622;2022-08-03T13:57:37;29.10;1.00
38131;DHT22;23947;51.894;4.622;2022-08-03T14:00:04;29.30;1.00
38131;DHT22;23947;51.894;4.622;2022-08-03T14:02:30;29.40;1.00
38131;DHT22;23947;51.894;4.622;2022-08-03T14:04:56;29.50;1.00
38131;DHT22;23947;51.894;4.622;2022-08-03T14:07:21;29.70;1.00
38131;DHT22;23947;51.894;4.622;2022-08-03T14:09:47;29.70;1.00
38131;DHT22;23947;51.894;4.622;2022-08-03T14:12:12;30.10;1.00
38131;DHT22;23947;51.894;4.622;2022-08-03T14:14:38;30.00;1.00
38131;DHT22;23947;51.894;4.622;2022-08-03T14:17:04;30.20;1.00
38131;DHT22;23947;51.894;4.622;2022-08-03T14:19:29;30.40;1.00
38131;DHT22;23947;51.894;4.622;2022-08-03T14:21:55;30.60;1.00
38131;DHT22;23947;51.894;4.622;2022-08-03T14:24:20;30.50;1.00
38131;DHT22;23947;51.894;4.622;2022-08-03T14:26:46;30.70;1.00
38131;DHT22;23947;51.894;4.622;2022-08-03T14:29:12;30.30;1.00
38131;DHT22;23947;51.894;4.622;2022-08-03T14:31:37;30.40;1.00
38131;DHT22;23947;51.894;4.622;2022-08-03T14:34:03;30.40;1.00
38131;DHT22;23947;51.894;4.622;2022-08-03T14:36:29;30.60;1.00
38131;DHT22;23947;51.894;4.622;2022-08-03T14:38:55;30.80;1.00
38131;DHT22;23947;51.894;4.622;2022-08-03T14:41:20;30.90;1.00
38131;DHT22;23947;51.894;4.622;2022-08-03T14:43:46;31.00;1.00
38131;DHT22;23947;51.894;4.622;2022-08-03T14:46:12;31.30;1.00
38131;DHT22;23947;51.894;4.622;2022-08-03T14:48:38;31.20;1.00
38131;DHT22;23947;51.894;4.622;2022-08-03T14:51:04;31.20;1.00
38131;DHT22;23947;51.894;4.622;2022-08-03T14:53:30;31.00;1.00
38131;DHT22;23947;51.894;4.622;2022-08-03T14:55:56;31.10;1.00
38131;DHT22;23947;51.894;4.622;2022-08-03T14:58:23;30.80;1.00
38131;DHT22;23947;51.894;4.622;2022-08-03T15:00:55;30.80;1.00
38131;DHT22;23947;51.894;4.622;2022-08-03T15:03:26;31.00;1.00
38131;DHT22;23947;51.894;4.622;2022-08-03T15:05:53;31.10;1.00
38131;DHT22;23947;51.894;4.622;2022-08-03T15:08:20;30.90;1.00
38131;DHT22;23947;51.894;4.622;2022-08-03T15:10:46;30.90;1.00
38131;DHT22;23947;51.894;4.622;2022-08-03T15:13:12;31.20;1.00
38131;DHT22;23947;51.894;4.622;2022-08-03T15:15:38;31.40;1.00
38131;DHT22;23947;51.894;4.622;2022-08-03T15:18:04;31.30;1.00
38131;DHT22;23947;51.894;4.622;2022-08-03T15:20:30;31.10;1.00
38131;DHT22;23947;51.894;4.622;2022-08-03T15:22:59;30.90;1.00
38131;DHT22;23947;51.894;4.622;2022-08-03T15:25:24;31.10;1.00
38131;DHT22;23947;51.894;4.622;2022-08-03T15:27:51;31.10;1.00
38131;DHT22;23947;51.894;4.622;2022-08-03T15:30:17;31.10;1.00
38131;DHT22;23947;51.894;4.622;2022-08-03T15:32:42;31.00;1.00
38131;DHT22;23947;51.894;4.622;2022-08-03T15:35:08;31.10;1.00
38131;DHT22;23947;51.894;4.622;2022-08-03T15:37:34;31.10;1.00
38131;DHT22;23947;51.894;4.622;2022-08-03T15:39:59;31.20;1.00
38131;DHT22;23947;51.894;4.622;2022-08-03T15:42:25;31.30;1.00
38131;DHT22;23947;51.894;4.622;2022-08-03T15:44:50;31.30;1.00
38131;DHT22;23947;51.894;4.622;2022-08-03T15:47:16;31.30;1.00
38131;DHT22;23947;51.894;4.622;2022-08-03T15:49:42;31.10;1.00
38131;DHT22;23947;51.894;4.622;2022-08-03T15:52:07;31.00;1.00
38131;DHT22;23947;51.894;4.622;2022-08-03T15:54:33;31.00;1.00
38131;DHT22;23947;51.894;4.622;2022-08-03T15:56:59;30.80;1.00
38131;DHT22;23947;51.894;4.622;2022-08-03T15:59:24;30.70;1.00
38131;DHT22;23947;51.894;4.622;2022-08-03T16:01:50;30.50;1.00
38131;DHT22;23947;51.894;4.622;2022-08-03T16:04:16;30.50;1.00
38131;DHT22;23947;51.894;4.622;2022-08-03T16:06:41;30.40;1.00
38131;DHT22;23947;51.894;4.622;2022-08-03T16:09:07;30.50;1.00
38131;DHT22;23947;51.894;4.622;2022-08-03T16:11:33;30.60;1.00
38131;DHT22;23947;51.894;4.622;2022-08-03T16:14:02;30.60;1.00
38131;DHT22;23947;51.894;4.622;2022-08-03T16:16:28;30.70;1.00
38131;DHT22;23947;51.894;4.622;2022-08-03T16:18:54;30.80;1.00
38131;DHT22;23947;51.894;4.622;2022-08-03T16:21:19;30.70;1.00
38131;DHT22;23947;51.894;4.622;2022-08-03T16:23:45;30.60;1.00
38131;DHT22;23947;51.894;4.622;2022-08-03T16:26:11;30.50;1.00
38131;DHT22;23947;51.894;4.622;2022-08-03T16:28:37;30.60;1.00